Time;durP1;ratioP1;P1;durP2;ratioP2;P2;SDS_P1;SDS_P2;PMS_P1;PMS_P2;Temp;Humidity;BMP_temperature;BMP_pressure;BME280_temperature;BME280_humidity;BME280_pressure;Samples;Min_cycle;Max_cycle;Signal;HPM_P1;HPM_P2
2022/07/29 00:00:44;;;;;;;2.05;1.00;;;15.10;99.90;;;;;;5017128;28;20056;-69
2022/07/29 00:03:10;;;;;;;5.70;1.35;;;15.10;99.90;;;;;;5016284;28;20056;-69
2022/07/29 00:05:35;;;;;;;2.40;0.90;;;15.10;99.90;;;;;;5017115;28;20046;-69
2022/07/29 00:08:01;;;;;;;9.32;1.70;;;15.10;99.90;;;;;;5016773;28;20038;-69
2022/07/29 00:10:27;;;;;;;3.08;1.08;;;15.10;99.90;;;;;;5016472;28;20053;-69
2022/07/29 00:12:52;;;;;;;2.85;1.20;;;15.10;99.90;;;;;;5016373;28;20493;-69
2022/07/29 00:15:18;;;;;;;3.45;1.20;;;15.10;99.90;;;;;;5016612;28;20053;-69
2022/07/29 00:17:43;;;;;;;3.42;1.08;;;15.10;99.90;;;;;;5016784;28;20462;-69
2022/07/29 00:20:09;;;;;;;2.90;1.30;;;15.10;99.90;;;;;;5016328;28;20042;-69
2022/07/29 00:22:38;;;;;;;2.15;1.40;;;15.10;99.90;;;;;;5016786;28;20061;-69
2022/07/29 00:25:04;;;;;;;2.47;1.00;;;15.10;99.90;;;;;;5016230;28;20059;-69
2022/07/29 00:27:29;;;;;;;4.28;1.20;;;15.20;99.90;;;;;;5016480;28;20037;-69
2022/07/29 00:29:55;;;;;;;4.93;1.95;;;15.10;99.90;;;;;;5016098;28;20370;-69
2022/07/29 00:32:20;;;;;;;2.45;1.50;;;15.20;99.90;;;;;;5015876;28;20042;-69
2022/07/29 00:37:30;;;;;;;2.97;1.65;;;15.20;99.90;;;;;;5016141;28;20061;-69
2022/07/29 00:39:56;;;;;;;1.83;1.17;;;15.20;99.90;;;;;;5015789;28;20363;-69
2022/07/29 00:42:21;;;;;;;1.88;1.10;;;15.10;99.90;;;;;;5015837;28;20137;-69
2022/07/29 00:44:47;;;;;;;2.15;1.15;;;15.10;99.90;;;;;;5016240;28;20046;-69
2022/07/29 00:47:13;;;;;;;3.28;1.48;;;15.10;99.90;;;;;;4999091;28;20128;-68
2022/07/29 00:49:40;;;;;;;5.05;1.50;;;15.10;99.90;;;;;;5016035;28;20394;-69
2022/07/29 00:52:08;;;;;;;7.13;1.55;;;15.10;99.90;;;;;;5015620;28;20038;-68
2022/07/29 00:54:34;;;;;;;2.92;1.48;;;15.10;99.90;;;;;;4998841;28;20045;-69
2022/07/29 00:57:01;;;;;;;5.05;1.30;;;15.20;99.90;;;;;;4998749;28;20057;-69
2022/07/29 00:59:27;;;;;;;4.63;1.52;;;15.10;99.90;;;;;;5016184;28;20497;-69
2022/07/29 01:01:53;;;;;;;2.88;1.55;;;15.10;99.90;;;;;;5016075;28;20092;-69
2022/07/29 01:04:20;;;;;;;2.20;1.15;;;15.10;99.90;;;;;;5015324;28;20054;-69
2022/07/29 01:06:47;;;;;;;4.80;1.52;;;15.00;99.90;;;;;;5015307;28;20042;-69
2022/07/29 01:09:14;;;;;;;3.03;1.45;;;15.00;99.90;;;;;;5015987;28;20042;-69
2022/07/29 01:11:40;;;;;;;5.65;1.50;;;15.10;99.90;;;;;;5015432;28;20073;-69
2022/07/29 01:14:07;;;;;;;4.75;1.30;;;15.10;99.90;;;;;;5015798;28;20053;-69
2022/07/29 01:17:01;;;;;;;6.85;1.50;;;15.00;99.90;;;;;;5015840;28;20081;-68
2022/07/29 01:19:45;;;;;;;4.25;1.58;;;15.00;99.90;;;;;;5015289;28;20458;-69
2022/07/29 01:23:02;;;;;;;4.30;1.52;;;15.00;99.90;;;;;;5015757;28;20389;-68
2022/07/29 01:26:05;;;;;;;2.72;1.42;;;15.00;99.90;;;;;;4974382;28;20088;-69
2022/07/29 01:28:33;;;;;;;5.22;1.60;;;15.00;99.90;;;;;;5015446;28;20042;-69
2022/07/29 01:31:02;;;;;;;5.88;1.30;;;15.00;99.90;;;;;;5015676;28;20046;-69
2022/07/29 01:36:53;;;;;;;3.28;1.45;;;15.00;99.90;;;;;;5014986;28;20482;-68
2022/07/29 01:39:25;;;;;;;3.40;1.50;;;15.00;99.90;;;;;;4939548;29;20055;-69
2022/07/29 01:42:12;;;;;;;3.85;1.50;;;15.10;99.90;;;;;;4954909;29;20083;-69
2022/07/29 01:44:46;;;;;;;3.63;1.70;;;15.00;99.90;;;;;;4994303;28;20068;-69
2022/07/29 01:47:17;;;;;;;5.22;2.30;;;15.00;99.90;;;;;;5015039;28;20042;-69
2022/07/29 01:49:49;;;;;;;3.42;1.67;;;15.00;99.90;;;;;;5015591;28;20119;-69
2022/07/29 01:52:52;;;;;;;4.50;1.90;;;15.00;99.90;;;;;;5014897;28;20116;-69
2022/07/29 01:55:22;;;;;;;5.57;1.95;;;15.00;99.90;;;;;;4999109;28;20089;-69
2022/07/29 01:57:48;;;;;;;7.60;2.15;;;15.00;99.90;;;;;;5014685;28;20125;-69
2022/07/29 02:00:15;;;;;;;4.15;1.60;;;15.00;99.90;;;;;;5014795;28;20466;-69
2022/07/29 02:02:44;;;;;;;2.60;1.30;;;15.00;99.90;;;;;;5014903;28;20133;-69
2022/07/29 02:05:13;;;;;;;3.95;1.40;;;15.00;99.90;;;;;;5014790;28;20421;-68
2022/07/29 02:07:41;;;;;;;6.72;1.63;;;15.00;99.90;;;;;;5014799;28;20085;-69
2022/07/29 02:10:09;;;;;;;3.47;1.38;;;15.10;99.90;;;;;;5014867;28;20109;-69
2022/07/29 02:12:36;;;;;;;1.92;1.10;;;15.10;99.90;;;;;;5015225;28;20413;-69
2022/07/29 02:15:03;;;;;;;2.92;1.30;;;15.10;99.90;;;;;;5014684;28;20050;-69
2022/07/29 02:17:35;;;;;;;5.20;1.08;;;15.10;99.90;;;;;;5016010;28;20455;-69
2022/07/29 02:20:03;;;;;;;3.40;1.50;;;15.10;99.90;;;;;;5018615;28;20042;-69
2022/07/29 02:22:30;;;;;;;2.53;1.35;;;15.10;99.90;;;;;;5018459;28;20121;-68
2022/07/29 02:24:58;;;;;;;3.33;1.35;;;15.10;99.90;;;;;;5001692;28;20081;-69
2022/07/29 02:27:25;;;;;;;4.43;1.48;;;15.10;99.90;;;;;;5018402;28;20054;-69
2022/07/29 02:29:53;;;;;;;3.42;1.20;;;15.20;99.90;;;;;;5018335;28;20046;-69
2022/07/29 02:32:19;;;;;;;5.60;1.38;;;15.20;99.90;;;;;;5018867;28;20116;-69
2022/07/29 02:34:47;;;;;;;6.03;1.20;;;15.20;99.90;;;;;;5018370;28;20042;-68
2022/07/29 02:37:13;;;;;;;4.10;1.08;;;15.20;99.90;;;;;;5018164;28;20411;-69
2022/07/29 02:39:42;;;;;;;2.00;0.93;;;15.10;99.90;;;;;;5001165;28;20096;-69
2022/07/29 02:42:12;;;;;;;2.45;1.15;;;15.20;99.90;;;;;;5018757;28;20042;-69
2022/07/29 02:44:38;;;;;;;1.52;1.00;;;15.20;99.90;;;;;;5018644;28;20132;-68
2022/07/29 02:47:42;;;;;;;4.32;1.50;;;15.20;99.90;;;;;;5018056;28;20081;-68
2022/07/29 02:50:30;;;;;;;2.22;1.15;;;15.10;99.90;;;;;;5018047;28;20057;-69
2022/07/29 02:53:08;;;;;;;2.38;1.30;;;15.20;99.90;;;;;;5017752;28;20050;-69
2022/07/29 02:55:48;;;;;;;1.70;0.93;;;15.20;99.90;;;;;;5017930;28;20050;-68
2022/07/29 02:58:33;;;;;;;3.25;1.10;;;15.20;99.90;;;;;;5017859;28;20056;-69
2022/07/29 03:01:03;;;;;;;4.03;1.15;;;15.10;99.90;;;;;;5018437;28;20041;-69
2022/07/29 03:03:32;;;;;;;2.85;1.27;;;15.10;99.90;;;;;;5017807;28;20054;-69
2022/07/29 03:05:59;;;;;;;5.60;1.58;;;15.10;99.90;;;;;;5017655;28;20057;-69
2022/07/29 03:08:27;;;;;;;2.47;1.27;;;15.10;99.90;;;;;;5017614;28;20089;-69
2022/07/29 03:10:53;;;;;;;4.68;1.10;;;15.10;99.90;;;;;;5001260;28;20045;-69
2022/07/29 03:13:19;;;;;;;4.53;1.60;;;15.10;99.90;;;;;;5017621;28;20081;-69
2022/07/29 03:15:45;;;;;;;5.10;1.33;;;15.10;99.90;;;;;;5017463;28;20038;-69
2022/07/29 03:18:12;;;;;;;4.97;1.50;;;15.10;99.90;;;;;;5017442;28;20060;-69
2022/07/29 03:20:38;;;;;;;2.22;1.30;;;15.10;99.90;;;;;;5017515;28;20050;-69
2022/07/29 03:23:04;;;;;;;7.95;1.60;;;15.10;99.90;;;;;;5017450;28;20107;-69
2022/07/29 03:25:30;;;;;;;4.15;1.40;;;15.10;99.90;;;;;;5017317;28;20462;-68
2022/07/29 03:27:56;;;;;;;3.60;1.40;;;15.10;99.90;;;;;;5017041;28;20081;-69
2022/07/29 03:30:22;;;;;;;3.58;1.65;;;15.10;99.90;;;;;;5017639;28;20467;-69
2022/07/29 03:32:49;;;;;;;5.25;1.17;;;15.10;99.90;;;;;;5017345;28;20049;-69
2022/07/29 03:35:16;;;;;;;3.83;1.65;;;15.10;99.90;;;;;;5017076;28;20118;-69
2022/07/29 03:37:42;;;;;;;3.97;1.30;;;15.10;99.90;;;;;;5017108;28;20107;-69
2022/07/29 03:40:11;;;;;;;2.35;1.00;;;15.10;99.90;;;;;;5017514;28;20077;-69
2022/07/29 03:42:40;;;;;;;2.53;1.20;;;15.10;99.90;;;;;;5017325;28;20054;-69
2022/07/29 03:45:09;;;;;;;3.83;1.60;;;15.10;99.90;;;;;;5017227;28;20046;-68
2022/07/29 03:47:38;;;;;;;3.03;1.33;;;15.10;99.90;;;;;;5017022;28;20417;-69
2022/07/29 03:50:10;;;;;;;4.07;1.20;;;15.10;99.90;;;;;;5016828;28;20436;-69
2022/07/29 03:52:36;;;;;;;2.92;1.30;;;15.10;99.90;;;;;;5017153;28;20061;-69
2022/07/29 03:55:02;;;;;;;1.98;1.20;;;15.10;99.90;;;;;;5016991;28;20034;-69
2022/07/29 03:57:30;;;;;;;5.28;1.40;;;15.10;99.90;;;;;;5016715;28;20152;-69
2022/07/29 03:59:56;;;;;;;5.28;1.45;;;15.10;99.90;;;;;;5016903;28;20037;-69
2022/07/29 04:02:25;;;;;;;4.50;1.20;;;15.00;99.90;;;;;;5016741;28;20042;-69
2022/07/29 04:04:51;;;;;;;3.35;1.35;;;15.00;99.90;;;;;;5016527;28;20042;-69
2022/07/29 04:07:16;;;;;;;3.10;1.48;;;15.00;99.90;;;;;;5016954;28;20042;-69
2022/07/29 04:09:42;;;;;;;3.40;1.20;;;15.00;99.90;;;;;;5016530;28;20096;-68
2022/07/29 04:12:08;;;;;;;5.32;1.60;;;15.00;99.90;;;;;;5016714;28;20092;-69
2022/07/29 04:14:34;;;;;;;2.63;1.30;;;15.00;99.90;;;;;;5016408;28;20060;-69
2022/07/29 04:17:01;;;;;;;4.53;1.63;;;15.00;99.90;;;;;;5016516;28;20387;-69
2022/07/29 04:19:27;;;;;;;4.18;1.27;;;15.00;99.90;;;;;;5016243;28;20049;-68
2022/07/29 04:21:53;;;;;;;3.33;1.42;;;15.00;99.90;;;;;;5016307;28;20125;-69
2022/07/29 04:24:18;;;;;;;4.95;1.30;;;15.00;99.90;;;;;;4999798;28;20108;-69
2022/07/29 04:26:46;;;;;;;4.25;1.63;;;15.00;99.90;;;;;;5016510;28;20033;-69
2022/07/29 04:29:11;;;;;;;4.53;1.20;;;15.00;99.90;;;;;;5016054;28;20443;-69
2022/07/29 04:31:37;;;;;;;5.82;1.40;;;15.00;99.90;;;;;;5016651;28;20120;-69
2022/07/29 04:34:03;;;;;;;4.30;1.30;;;15.00;99.90;;;;;;5016606;28;20411;-68
2022/07/29 04:36:29;;;;;;;3.17;1.17;;;15.10;99.90;;;;;;5016359;28;20046;-69
2022/07/29 04:38:54;;;;;;;2.30;1.20;;;15.10;99.90;;;;;;5016019;28;20516;-69
2022/07/29 04:41:20;;;;;;;5.53;1.95;;;15.10;99.90;;;;;;5015552;28;20046;-69
2022/07/29 04:43:45;;;;;;;3.38;1.60;;;15.10;99.90;;;;;;5016485;28;20050;-69
2022/07/29 04:46:11;;;;;;;5.20;1.33;;;15.10;99.90;;;;;;5016399;28;20457;-69
2022/07/29 04:48:37;;;;;;;4.75;1.58;;;15.10;99.90;;;;;;5015871;28;20366;-69
2022/07/29 04:51:02;;;;;;;3.38;1.50;;;15.10;99.90;;;;;;5015826;28;20058;-69
2022/07/29 04:53:28;;;;;;;4.95;1.23;;;15.10;99.90;;;;;;5015903;28;20116;-69
2022/07/29 04:55:54;;;;;;;4.05;1.58;;;15.10;99.90;;;;;;5015684;28;20041;-69
2022/07/29 04:58:19;;;;;;;3.05;1.10;;;15.20;99.90;;;;;;5015731;28;20393;-68
2022/07/29 05:00:45;;;;;;;6.40;1.35;;;15.10;99.90;;;;;;5015486;28;20038;-69
2022/07/29 05:03:11;;;;;;;4.00;1.52;;;15.20;99.90;;;;;;5015174;28;20061;-69
2022/07/29 05:05:36;;;;;;;3.03;1.30;;;15.20;99.90;;;;;;5015374;28;20054;-69
2022/07/29 05:08:02;;;;;;;6.50;1.65;;;15.20;99.90;;;;;;5016090;28;20033;-68
2022/07/29 05:10:28;;;;;;;3.35;1.15;;;15.20;99.90;;;;;;5015531;28;20517;-69
2022/07/29 05:12:54;;;;;;;5.97;1.60;;;15.20;99.90;;;;;;5015629;28;20057;-69
2022/07/29 05:15:19;;;;;;;2.80;1.13;;;15.30;99.90;;;;;;5015436;28;20378;-69
2022/07/29 05:17:45;;;;;;;3.08;1.60;;;15.30;99.90;;;;;;5015057;28;20046;-69
2022/07/29 05:20:10;;;;;;;6.90;1.17;;;15.30;99.90;;;;;;5015354;28;20050;-69
2022/07/29 05:22:36;;;;;;;2.65;1.38;;;15.40;99.90;;;;;;5015305;28;20466;-69
2022/07/29 05:25:02;;;;;;;7.65;1.65;;;15.40;99.90;;;;;;5015284;28;20053;-69
2022/07/29 05:27:28;;;;;;;5.00;1.58;;;15.40;99.90;;;;;;5015431;28;20060;-69
2022/07/29 05:29:54;;;;;;;5.40;1.38;;;15.50;99.90;;;;;;5015200;28;20046;-69
2022/07/29 05:32:19;;;;;;;5.47;1.33;;;15.60;99.90;;;;;;5015123;28;20168;-69
2022/07/29 05:34:45;;;;;;;7.07;1.70;;;15.60;99.90;;;;;;5015600;28;20038;-69
2022/07/29 05:37:13;;;;;;;4.45;1.60;;;15.70;99.90;;;;;;5015665;28;20050;-69
2022/07/29 05:39:38;;;;;;;5.97;1.20;;;15.60;99.90;;;;;;5015024;28;20057;-69
2022/07/29 05:42:10;;;;;;;3.15;1.30;;;15.70;99.90;;;;;;5014971;28;20046;-69
2022/07/29 05:44:39;;;;;;;4.57;1.60;;;15.80;99.90;;;;;;5014973;28;20100;-69
2022/07/29 05:47:06;;;;;;;6.15;1.30;;;15.80;99.90;;;;;;5014983;28;20056;-69
2022/07/29 05:49:32;;;;;;;3.63;1.63;;;15.90;99.90;;;;;;5015091;28;20077;-69
2022/07/29 05:51:58;;;;;;;5.47;1.70;;;15.90;99.90;;;;;;5015553;28;20096;-69
2022/07/29 05:54:23;;;;;;;5.93;1.23;;;15.90;99.90;;;;;;5019587;28;20041;-69
2022/07/29 05:56:49;;;;;;;3.25;1.20;;;16.00;99.90;;;;;;5018926;28;20428;-69
2022/07/29 05:59:15;;;;;;;6.43;1.80;;;16.20;99.90;;;;;;5001796;28;20339;-69
2022/07/29 06:01:41;;;;;;;5.97;1.88;;;16.20;99.90;;;;;;5018934;28;20386;-69
2022/07/29 06:04:06;;;;;;;7.57;1.42;;;16.30;99.90;;;;;;5019245;28;20062;-69
2022/07/29 06:06:33;;;;;;;4.68;1.45;;;16.20;99.90;;;;;;5019066;28;20050;-69
2022/07/29 06:09:00;;;;;;;3.65;1.35;;;16.30;99.90;;;;;;5018935;28;20489;-69
2022/07/29 06:11:26;;;;;;;6.75;1.60;;;16.30;99.90;;;;;;5019270;28;20124;-69
2022/07/29 06:13:52;;;;;;;6.85;1.40;;;16.40;99.90;;;;;;5018670;28;20145;-69
2022/07/29 06:16:19;;;;;;;4.55;1.10;;;16.40;99.90;;;;;;5018805;28;20359;-69
2022/07/29 06:18:44;;;;;;;4.10;1.30;;;16.50;99.90;;;;;;5018487;28;20052;-69
2022/07/29 06:21:10;;;;;;;4.00;1.30;;;16.60;99.90;;;;;;5018878;28;20045;-69
2022/07/29 06:23:39;;;;;;;3.72;1.40;;;16.70;99.90;;;;;;5001374;28;20463;-69
2022/07/29 06:26:05;;;;;;;13.23;1.15;;;16.70;99.90;;;;;;5018513;28;20042;-69
2022/07/29 06:28:32;;;;;;;3.05;1.38;;;16.70;99.90;;;;;;5018364;28;20038;-69
2022/07/29 06:30:58;;;;;;;4.97;1.65;;;16.80;99.90;;;;;;5018979;28;20398;-69
2022/07/29 06:33:24;;;;;;;1.90;1.10;;;16.80;99.90;;;;;;5018776;28;20068;-70
2022/07/29 06:35:50;;;;;;;3.53;1.27;;;16.90;99.90;;;;;;5018798;28;20542;-69
2022/07/29 06:38:16;;;;;;;3.85;1.38;;;17.10;99.90;;;;;;5018493;28;20116;-69
2022/07/29 06:40:59;;;;;;;2.88;1.25;;;17.20;99.90;;;;;;5018221;28;20057;-69
2022/07/29 06:43:26;;;;;;;2.53;1.17;;;17.50;99.90;;;;;;5018160;28;20053;-69
2022/07/29 06:45:52;;;;;;;3.88;1.20;;;17.90;99.90;;;;;;5018150;28;20128;-70
2022/07/29 06:48:18;;;;;;;5.80;1.35;;;18.10;99.90;;;;;;5018032;28;20096;-69
2022/07/29 06:50:43;;;;;;;5.10;1.35;;;18.10;99.90;;;;;;5018068;28;20050;-69
2022/07/29 06:53:09;;;;;;;5.63;2.58;;;18.00;99.90;;;;;;5017869;28;20382;-68
2022/07/29 06:55:36;;;;;;;4.90;1.60;;;18.00;99.90;;;;;;5017913;28;20053;-69
2022/07/29 06:58:02;;;;;;;5.72;1.40;;;17.80;99.90;;;;;;5018398;28;20104;-69
2022/07/29 07:00:27;;;;;;;2.25;1.20;;;17.80;99.90;;;;;;5017853;28;20081;-69
2022/07/29 07:02:53;;;;;;;2.40;1.27;;;17.70;99.90;;;;;;5017609;28;20065;-69
2022/07/29 07:05:18;;;;;;;2.58;1.40;;;17.60;99.90;;;;;;5017581;28;20115;-69
2022/07/29 07:07:44;;;;;;;2.60;1.30;;;17.70;99.90;;;;;;5017611;28;20042;-69
2022/07/29 07:10:10;;;;;;;7.20;1.85;;;17.70;99.90;;;;;;5017604;28;20042;-69
2022/07/29 07:12:35;;;;;;;2.20;1.17;;;17.60;99.90;;;;;;5017552;28;20049;-69
2022/07/29 07:15:01;;;;;;;3.70;1.23;;;17.60;99.90;;;;;;5017985;28;20053;-69
2022/07/29 07:17:26;;;;;;;2.85;1.40;;;17.60;99.90;;;;;;5017597;28;20125;-69
2022/07/29 07:19:52;;;;;;;8.63;1.58;;;17.70;99.90;;;;;;5017433;28;20046;-68
2022/07/29 07:22:17;;;;;;;3.13;1.20;;;17.70;99.90;;;;;;5017474;28;20042;-69
2022/07/29 07:24:43;;;;;;;12.50;1.58;;;17.60;99.90;;;;;;5017357;28;20525;-69
2022/07/29 07:27:08;;;;;;;2.47;1.27;;;17.70;99.90;;;;;;5017334;28;20125;-69
2022/07/29 07:29:34;;;;;;;2.58;1.20;;;17.80;99.90;;;;;;5017487;28;20100;-69
2022/07/29 07:32:00;;;;;;;7.90;1.70;;;17.80;99.90;;;;;;5017593;28;20048;-69
2022/07/29 07:34:25;;;;;;;2.80;1.40;;;17.80;99.90;;;;;;5017442;28;20056;-69
2022/07/29 07:36:51;;;;;;;4.70;1.65;;;17.80;99.90;;;;;;5017099;28;20061;-69
2022/07/29 07:39:16;;;;;;;3.00;1.25;;;17.90;99.90;;;;;;5017109;28;20148;-70
2022/07/29 07:41:42;;;;;;;4.03;1.45;;;18.20;99.90;;;;;;5016857;28;20046;-69
2022/07/29 07:44:07;;;;;;;2.65;1.33;;;18.30;99.90;;;;;;5016913;28;20046;-69
2022/07/29 07:46:33;;;;;;;4.35;1.58;;;18.20;99.90;;;;;;5017151;28;20057;-70
2022/07/29 07:48:58;;;;;;;5.25;1.90;;;18.40;99.90;;;;;;5017188;28;20046;-69
2022/07/29 07:51:24;;;;;;;3.95;1.40;;;18.30;99.90;;;;;;5016940;28;20129;-69
2022/07/29 07:53:50;;;;;;;4.95;2.15;;;18.30;99.90;;;;;;5016876;28;20052;-69
2022/07/29 07:56:16;;;;;;;2.92;1.65;;;18.40;99.90;;;;;;5016624;28;20064;-69
2022/07/29 07:58:42;;;;;;;4.90;1.63;;;18.40;99.90;;;;;;5016975;28;20050;-69
2022/07/29 08:01:08;;;;;;;3.85;1.90;;;18.50;99.90;;;;;;5016686;28;20054;-69
2022/07/29 08:03:34;;;;;;;5.40;1.50;;;18.70;99.90;;;;;;5016668;28;20069;-69
2022/07/29 08:06:00;;;;;;;5.25;1.70;;;18.80;99.90;;;;;;5016673;28;20352;-69
2022/07/29 08:08:26;;;;;;;3.75;1.80;;;19.00;99.90;;;;;;5016579;28;20056;-69
2022/07/29 08:10:58;;;;;;;6.20;1.80;;;18.90;99.90;;;;;;5016509;28;20057;-69
2022/07/29 08:13:27;;;;;;;5.45;2.25;;;19.00;99.90;;;;;;5016538;28;20041;-69
2022/07/29 08:15:57;;;;;;;4.25;2.20;;;19.10;99.90;;;;;;5015982;28;20042;-69
2022/07/29 08:18:24;;;;;;;5.38;1.77;;;19.20;99.90;;;;;;5016303;28;20124;-69
2022/07/29 08:20:50;;;;;;;8.95;1.90;;;19.00;99.90;;;;;;5016340;28;20464;-69
2022/07/29 08:23:15;;;;;;;5.75;1.55;;;19.10;99.90;;;;;;5016276;28;20046;-69
2022/07/29 08:25:41;;;;;;;4.10;1.80;;;19.20;99.90;;;;;;5016667;28;20100;-69
2022/07/29 08:28:07;;;;;;;4.18;2.10;;;19.30;99.90;;;;;;5016297;28;20413;-69
2022/07/29 08:30:33;;;;;;;5.13;2.15;;;19.40;99.90;;;;;;4999169;28;20049;-70
2022/07/29 08:32:59;;;;;;;5.18;1.92;;;19.30;99.90;;;;;;5016168;28;20049;-69
2022/07/29 08:35:25;;;;;;;4.03;1.70;;;19.50;99.90;;;;;;5015924;28;20052;-69
2022/07/29 08:37:51;;;;;;;4.53;1.83;;;19.30;99.90;;;;;;5015978;28;20045;-69
2022/07/29 08:40:18;;;;;;;6.65;1.83;;;19.30;99.90;;;;;;5016276;28;20371;-70
2022/07/29 08:42:44;;;;;;;4.03;1.45;;;19.30;99.90;;;;;;5015860;28;20125;-69
2022/07/29 08:45:10;;;;;;;6.18;1.80;;;19.30;99.90;;;;;;5015942;28;20427;-70
2022/07/29 08:47:39;;;;;;;4.10;2.13;;;19.40;99.90;;;;;;5016036;28;20042;-70
2022/07/29 08:50:06;;;;;;;3.17;1.52;;;19.30;99.90;;;;;;4999076;28;20414;-69
2022/07/29 08:52:39;;;;;;;5.45;1.77;;;19.20;99.90;;;;;;5016035;28;20073;-70
2022/07/29 08:55:07;;;;;;;5.68;1.70;;;19.30;99.90;;;;;;5015699;28;20120;-69
2022/07/29 08:57:33;;;;;;;7.35;2.20;;;19.30;99.90;;;;;;4998172;28;20073;-69
2022/07/29 09:00:03;;;;;;;4.78;1.70;;;19.40;99.90;;;;;;5015600;28;20041;-69
2022/07/29 09:02:33;;;;;;;15.70;2.17;;;19.50;99.90;;;;;;5015475;28;20470;-69
2022/07/29 09:05:01;;;;;;;2.70;1.40;;;19.60;99.90;;;;;;5015229;28;20125;-68
2022/07/29 09:07:26;;;;;;;4.75;1.83;;;19.80;99.90;;;;;;5015515;28;20184;-69
2022/07/29 09:09:52;;;;;;;6.40;1.70;;;19.80;99.90;;;;;;5015854;28;20046;-69
2022/07/29 09:12:18;;;;;;;4.13;1.60;;;20.10;99.90;;;;;;5015463;28;20505;-69
2022/07/29 09:14:43;;;;;;;3.35;1.63;;;20.00;99.70;;;;;;5015439;28;20050;-69
2022/07/29 09:17:09;;;;;;;3.78;1.40;;;20.00;99.50;;;;;;4998286;28;20054;-69
2022/07/29 09:19:36;;;;;;;2.67;1.33;;;20.00;99.90;;;;;;4998313;28;20049;-70
2022/07/29 09:22:06;;;;;;;3.20;1.65;;;20.10;99.60;;;;;;5015104;28;20534;-70
2022/07/29 09:24:46;;;;;;;7.53;1.58;;;20.10;99.50;;;;;;5015313;28;20033;-69
2022/07/29 09:27:25;;;;;;;6.88;2.17;;;20.00;99.30;;;;;;5015742;28;20413;-69
2022/07/29 09:30:06;;;;;;;2.83;1.33;;;20.10;99.80;;;;;;5015089;28;20057;-69
2022/07/29 09:32:33;;;;;;;4.93;1.50;;;20.10;99.00;;;;;;5015231;28;20041;-69
2022/07/29 09:35:19;;;;;;;6.13;1.70;;;20.00;99.40;;;;;;4997965;28;20347;-69
2022/07/29 09:37:45;;;;;;;3.80;1.60;;;20.10;99.80;;;;;;5015089;28;20072;-69
2022/07/29 09:40:22;;;;;;;2.83;1.52;;;20.20;99.70;;;;;;5015237;28;20482;-69
2022/07/29 09:42:49;;;;;;;5.65;1.58;;;20.30;99.40;;;;;;5014836;28;20049;-69
2022/07/29 09:45:28;;;;;;;3.90;1.23;;;20.20;99.90;;;;;;5015071;28;20041;-69
2022/07/29 09:47:53;;;;;;;4.80;1.73;;;20.20;99.70;;;;;;4997892;28;20046;-70
2022/07/29 09:50:23;;;;;;;4.20;1.67;;;20.20;99.70;;;;;;5015589;28;20132;-69
2022/07/29 09:52:53;;;;;;;11.15;1.77;;;20.20;99.60;;;;;;5014752;28;20379;-70
2022/07/29 09:55:19;;;;;;;4.75;1.33;;;20.30;99.90;;;;;;5014594;28;20135;-69
2022/07/29 09:57:46;;;;;;;4.13;1.35;;;20.40;99.90;;;;;;5015451;28;20045;-69
2022/07/29 10:00:15;;;;;;;2.63;1.33;;;20.50;99.60;;;;;;5014919;28;20046;-70
2022/07/29 10:02:43;;;;;;;6.90;1.98;;;20.70;99.70;;;;;;5015823;28;20073;-69
2022/07/29 10:05:29;;;;;;;3.60;1.50;;;20.50;99.50;;;;;;5014843;28;20057;-69
2022/07/29 10:07:57;;;;;;;7.13;1.63;;;20.50;99.80;;;;;;5014660;28;20058;-69
2022/07/29 10:10:23;;;;;;;3.90;1.80;;;20.50;99.60;;;;;;5014912;28;20058;-70
2022/07/29 10:12:54;;;;;;;4.90;1.50;;;20.40;99.40;;;;;;5014857;28;20050;-69
2022/07/29 10:15:23;;;;;;;3.63;1.40;;;20.40;99.50;;;;;;5014775;28;20037;-70
2022/07/29 10:17:49;;;;;;;3.05;1.52;;;20.40;99.90;;;;;;5014787;28;20049;-69
2022/07/29 10:20:16;;;;;;;4.20;1.60;;;20.50;99.70;;;;;;5015218;28;20042;-69
2022/07/29 10:22:41;;;;;;;4.90;2.22;;;20.50;99.70;;;;;;5014781;28;20077;-69
2022/07/29 10:25:08;;;;;;;3.17;1.50;;;20.50;99.50;;;;;;5014700;28;20097;-70
2022/07/29 10:27:35;;;;;;;7.85;1.77;;;20.50;99.50;;;;;;5014915;28;20050;-70
2022/07/29 10:30:04;;;;;;;3.08;1.33;;;20.60;99.90;;;;;;5014610;28;20052;-69
2022/07/29 10:32:57;;;;;;;3.10;1.55;;;20.70;99.80;;;;;;5014595;28;20046;-69
2022/07/29 10:35:33;;;;;;;;;;;20.90;99.90;;;;;;5015028;28;20053;-70
2022/07/29 10:37:58;;;;;;;2.95;1.15;;;21.00;99.50;;;;;;5015639;28;20333;-69
2022/07/29 10:43:21;;;;;;;3.58;1.38;;;21.00;99.00;;;;;;5017835;28;20045;-70
2022/07/29 10:45:48;;;;;;;5.85;1.73;;;21.10;99.40;;;;;;5001120;28;20053;-70
2022/07/29 10:48:14;;;;;;;5.70;1.75;;;21.20;98.90;;;;;;5018062;28;20045;-69
2022/07/29 10:50:56;;;;;;;9.63;2.08;;;21.10;99.00;;;;;;5017905;28;20060;-69
2022/07/29 10:53:23;;;;;;;4.88;1.60;;;21.20;98.80;;;;;;5017996;28;20375;-69
2022/07/29 10:55:50;;;;;;;7.15;1.63;;;21.20;99.00;;;;;;5017715;28;20482;-70
2022/07/29 10:58:21;;;;;;;2.53;1.15;;;21.30;98.90;;;;;;5017905;28;20042;-69
2022/07/29 11:00:49;;;;;;;3.78;1.30;;;21.30;98.80;;;;;;5018169;28;20042;-69
2022/07/29 11:03:40;;;;;;;5.97;1.70;;;21.40;99.10;;;;;;5017967;28;20120;-69
2022/07/29 11:06:06;;;;;;;8.77;1.48;;;21.50;99.40;;;;;;5017472;28;20054;-70
2022/07/29 11:08:31;;;;;;;3.58;1.50;;;21.40;98.90;;;;;;5017959;28;20041;-69
2022/07/29 11:11:18;;;;;;;5.05;1.83;;;21.50;98.80;;;;;;5018271;28;20045;-69
2022/07/29 11:13:47;;;;;;;3.58;1.55;;;21.60;99.10;;;;;;5018199;28;20100;-69
2022/07/29 11:16:14;;;;;;;5.03;1.60;;;21.80;98.40;;;;;;5017643;28;20049;-69
2022/07/29 11:19:11;;;;;;;5.53;1.95;;;21.90;99.10;;;;;;5017364;28;20045;-69
2022/07/29 11:21:38;;;;;;;6.10;1.90;;;22.00;98.50;;;;;;5017477;28;20046;-69
2022/07/29 11:24:15;;;;;;;5.18;1.60;;;22.20;98.10;;;;;;5017679;28;20053;-69
2022/07/29 11:26:41;;;;;;;10.05;2.28;;;22.30;98.20;;;;;;5017394;28;20038;-69
2022/07/29 11:29:28;;;;;;;4.60;1.33;;;22.50;98.80;;;;;;5017365;28;20103;-69
2022/07/29 11:32:09;;;;;;;6.47;1.50;;;22.40;97.60;;;;;;5000141;28;20054;-69
2022/07/29 11:34:36;;;;;;;7.03;1.90;;;22.40;97.80;;;;;;5017420;28;20479;-69
2022/07/29 11:37:09;;;;;;;9.95;2.15;;;22.40;98.60;;;;;;5017266;28;20050;-70
2022/07/29 11:39:37;;;;;;;4.07;1.65;;;22.50;98.60;;;;;;5017125;28;20064;-69
2022/07/29 11:42:22;;;;;;;5.50;2.05;;;22.60;97.50;;;;;;5017417;28;20042;-69
2022/07/29 11:45:17;;;;;;;6.47;2.08;;;22.70;98.40;;;;;;4999938;28;20065;-69
2022/07/29 11:47:46;;;;;;;3.13;1.25;;;23.10;98.40;;;;;;5017424;28;20046;-69
2022/07/29 11:50:15;;;;;;;6.05;1.67;;;23.40;98.10;;;;;;5017380;28;20054;-69
2022/07/29 11:52:47;;;;;;;5.90;2.20;;;23.70;97.30;;;;;;5016774;28;20451;-69
2022/07/29 11:55:22;;;;;;;4.70;1.60;;;23.90;97.20;;;;;;5016841;28;20054;-69
2022/07/29 11:57:52;;;;;;;4.43;2.00;;;24.20;97.30;;;;;;5016778;28;20065;-69
2022/07/29 12:00:29;;;;;;;4.47;2.03;;;24.10;95.80;;;;;;5017227;28;20076;-70
2022/07/29 12:02:56;;;;;;;3.08;1.60;;;24.40;96.50;;;;;;5017230;28;20093;-70
2022/07/29 12:05:37;;;;;;;3.65;1.35;;;24.60;95.90;;;;;;5016456;28;20038;-71
2022/07/29 12:08:22;;;;;;;2.60;1.40;;;24.60;96.50;;;;;;5016596;28;20061;-69
2022/07/29 12:10:50;;;;;;;5.28;1.40;;;24.70;95.50;;;;;;5016502;28;20053;-70
2022/07/29 12:13:17;;;;;;;7.70;2.22;;;24.80;95.90;;;;;;5016487;28;20053;-70
2022/07/29 12:15:52;;;;;;;4.50;1.40;;;24.80;95.50;;;;;;5016396;28;20056;-70
2022/07/29 12:18:20;;;;;;;3.08;1.38;;;25.10;95.80;;;;;;5016308;28;20037;-69
2022/07/29 12:20:46;;;;;;;5.43;1.65;;;25.20;95.50;;;;;;5016912;28;20049;-70
2022/07/29 12:23:13;;;;;;;4.53;1.48;;;25.40;93.80;;;;;;5016255;28;20046;-70
2022/07/29 12:25:40;;;;;;;4.57;1.55;;;25.40;94.30;;;;;;5016266;28;20052;-70
2022/07/29 12:28:08;;;;;;;5.22;1.58;;;25.30;94.20;;;;;;5016296;28;20107;-70
2022/07/29 12:30:44;;;;;;;3.33;1.48;;;25.30;94.50;;;;;;5015994;28;20068;-70
2022/07/29 12:33:12;;;;;;;2.83;1.40;;;25.20;94.10;;;;;;5016077;28;20486;-70
2022/07/29 12:35:38;;;;;;;14.25;1.75;;;25.10;94.50;;;;;;5016496;28;20125;-70
2022/07/29 12:38:04;;;;;;;8.45;2.20;;;25.00;94.40;;;;;;5016391;28;20128;-70
2022/07/29 12:40:29;;;;;;;9.20;1.75;;;24.70;94.80;;;;;;5016567;28;20089;-70
2022/07/29 12:43:14;;;;;;;7.63;1.63;;;24.80;95.00;;;;;;5015919;28;20112;-69
2022/07/29 12:45:46;;;;;;;4.70;1.50;;;25.20;96.10;;;;;;5016508;28;20045;-70
2022/07/29 12:48:12;;;;;;;8.52;1.90;;;25.40;95.70;;;;;;5015808;28;20129;-69
2022/07/29 12:50:53;;;;;;;8.82;1.63;;;25.50;94.60;;;;;;5015848;28;20180;-70
2022/07/29 12:53:19;;;;;;;6.15;1.70;;;25.40;94.60;;;;;;4998461;28;20184;-69
2022/07/29 12:55:48;;;;;;;11.65;2.78;;;25.40;94.20;;;;;;5015572;28;20125;-70
2022/07/29 12:58:26;;;;;;;6.68;1.77;;;25.50;94.60;;;;;;5015732;28;20054;-69
2022/07/29 13:01:03;;;;;;;4.57;1.63;;;25.50;94.60;;;;;;4997921;28;20041;-70
2022/07/29 13:03:41;;;;;;;8.95;1.92;;;25.70;94.50;;;;;;5016391;28;20097;-69
2022/07/29 13:06:06;;;;;;;5.28;1.38;;;25.70;94.30;;;;;;5015561;28;20045;-69